createdAt,value
2023-01-26T00:00:03.080Z,100221.28
2023-01-26T00:02:52.272Z,100219.47
2023-01-26T00:05:27.884Z,100214.81
2023-01-26T00:07:57.211Z,100213.94
2023-01-26T00:10:28.627Z,100218.72
2023-01-26T00:12:58.373Z,100209.22
2023-01-26T00:15:29.672Z,100208.50
2023-01-26T00:17:59.733Z,100206.81
2023-01-26T00:20:35.627Z,100197.09
2023-01-26T00:23:12.123Z,100185.75
2023-01-26T00:25:49.737Z,100201.03
2023-01-26T00:28:23.722Z,100199.16
2023-01-26T00:30:51.959Z,100194.19
2023-01-26T00:33:22.358Z,100199.00
2023-01-26T00:35:56.986Z,100186.78
2023-01-26T00:38:26.831Z,100193.22
2023-01-26T00:40:55.413Z,100187.81
2023-01-26T00:43:25.732Z,100192.34
2023-01-26T00:45:57.736Z,100181.25
2023-01-26T00:48:34.970Z,100177.22
2023-01-26T00:51:13.654Z,100170.41
2023-01-26T00:53:46.690Z,100162.00
2023-01-26T00:56:19.291Z,100170.88
2023-01-26T00:58:51.229Z,100170.41
2023-01-26T01:01:23.057Z,100178.16
2023-01-26T01:03:52.737Z,100157.25
2023-01-26T01:06:23.493Z,100174.81
2023-01-26T01:08:52.396Z,100164.41
2023-01-26T01:11:21.889Z,100165.31
2023-01-26T01:13:57.201Z,100162.75
2023-01-26T01:16:29.508Z,100157.34
2023-01-26T01:19:12.654Z,100151.69
2023-01-26T01:21:55.128Z,100153.06
2023-01-26T01:24:23.631Z,100151.34
2023-01-26T01:26:53.482Z,100146.09
2023-01-26T01:29:25.667Z,100130.06
2023-01-26T01:31:57.203Z,100142.47
2023-01-26T01:34:29.121Z,100130.59
2023-01-26T01:37:00.809Z,100128.75
2023-01-26T01:39:32.925Z,100130.31
2023-01-26T01:42:07.070Z,100139.59
2023-01-26T01:44:45.039Z,100134.81
2023-01-26T01:47:25.142Z,100133.00
2023-01-26T01:49:58.186Z,100129.78
2023-01-26T01:52:32.914Z,100117.94
2023-01-26T01:55:07.888Z,100117.16
2023-01-26T01:57:48.800Z,100127.00
2023-01-26T02:00:30.106Z,100116.63
2023-01-26T02:03:19.439Z,100115.00
2023-01-26T02:06:01.318Z,100111.88
2023-01-26T02:08:40.765Z,100107.41
2023-01-26T02:11:22.013Z,100101.66
2023-01-26T02:13:52.190Z,100093.94
2023-01-26T02:16:21.721Z,100091.47
2023-01-26T02:18:51.344Z,100091.66
2023-01-26T02:21:22.387Z,100090.25
2023-01-26T02:24:03.285Z,100092.94
2023-01-26T02:26:36.037Z,100090.75
2023-01-26T02:29:10.868Z,100079.69
2023-01-26T02:31:47.085Z,100088.59
2023-01-26T02:34:21.553Z,100073.91
2023-01-26T02:36:58.261Z,100081.50
2023-01-26T02:39:44.756Z,100077.00
2023-01-26T02:42:38.937Z,100061.66
2023-01-26T02:45:09.927Z,100069.84
2023-01-26T02:47:40.793Z,100071.56
2023-01-26T02:50:16.603Z,100057.47
2023-01-26T02:52:46.430Z,100060.91
2023-01-26T02:55:38.770Z,100056.31
2023-01-26T02:58:20.434Z,100054.97
2023-01-26T03:00:49.757Z,100034.28
2023-01-26T03:03:21.963Z,100052.84
2023-01-26T03:05:54.643Z,100048.97
2023-01-26T03:08:26.773Z,100039.38
2023-01-26T03:10:56.666Z,100035.88
2023-01-26T03:13:38.097Z,100035.09
2023-01-26T03:16:10.434Z,100048.59
2023-01-26T03:19:02.123Z,100052.06
2023-01-26T03:21:56.124Z,100047.50
2023-01-26T03:24:44.504Z,100046.56
2023-01-26T03:27:33.194Z,100043.88
2023-01-26T03:30:26.369Z,100041.41
2023-01-26T03:33:02.848Z,100045.50
2023-01-26T03:35:35.929Z,100038.44
2023-01-26T03:38:04.645Z,100035.03
2023-01-26T03:41:08.143Z,100037.06
2023-01-26T03:43:57.263Z,100031.78
2023-01-26T03:46:46.649Z,100013.28
2023-01-26T03:49:37.115Z,100026.59
2023-01-26T03:52:25.183Z,100032.19
2023-01-26T03:55:11.973Z,100031.88
2023-01-26T03:57:45.184Z,100026.16
2023-01-26T04:00:23.845Z,100021.09
2023-01-26T04:03:16.107Z,100013.69
2023-01-26T04:06:15.742Z,100009.88
2023-01-26T04:08:58.228Z,100009.84
2023-01-26T04:11:26.463Z,100011.59
2023-01-26T04:14:16.316Z,99997.66
2023-01-26T04:17:02.951Z,99997.09
2023-01-26T04:19:56.539Z,99996.31
2023-01-26T04:22:36.958Z,99997.59
2023-01-26T04:25:06.640Z,99987.44
2023-01-26T04:27:46.276Z,99985.50
2023-01-26T04:30:18.510Z,99983.72
2023-01-26T04:32:47.501Z,99992.94
2023-01-26T04:35:19.803Z,99987.22
2023-01-26T04:37:50.589Z,99977.78
2023-01-26T04:40:27.601Z,99986.66
2023-01-26T04:43:06.137Z,99965.25
2023-01-26T04:45:43.542Z,99976.28
2023-01-26T04:48:15.039Z,99982.72
2023-01-26T04:50:58.509Z,99979.41
2023-01-26T04:53:31.689Z,99978.50
2023-01-26T04:56:01.929Z,99981.72
2023-01-26T04:58:32.047Z,99977.06
2023-01-26T05:01:02.147Z,99968.63
2023-01-26T05:03:31.489Z,99967.47
2023-01-26T05:06:13.121Z,99961.66
2023-01-26T05:08:48.626Z,99967.69
2023-01-26T05:11:26.567Z,99959.84
2023-01-26T05:14:17.358Z,99959.09
2023-01-26T05:17:07.647Z,99957.81
2023-01-26T05:19:56.634Z,99952.91
2023-01-26T05:22:47.478Z,99955.31
2023-01-26T05:25:36.346Z,99957.47
2023-01-26T05:28:12.719Z,99957.00
2023-01-26T05:30:43.688Z,99948.81
2023-01-26T05:33:20.532Z,99952.84
2023-01-26T05:35:51.671Z,99937.22
2023-01-26T05:38:24.820Z,99951.19
2023-01-26T05:40:56.765Z,99948.72
2023-01-26T05:43:27.720Z,99946.72
2023-01-26T05:46:35.479Z,99962.59
2023-01-26T05:49:07.329Z,99949.75
2023-01-26T05:51:40.779Z,99945.47
2023-01-26T05:54:13.858Z,99958.84
2023-01-26T05:56:43.253Z,99958.53
2023-01-26T05:59:11.885Z,99958.53
2023-01-26T06:01:41.779Z,99956.38
2023-01-26T06:04:16.786Z,99957.47
2023-01-26T06:06:55.203Z,99959.78
2023-01-26T06:09:43.242Z,99969.09
2023-01-26T06:12:36.044Z,99959.00
2023-01-26T06:15:21.282Z,99955.31
2023-01-26T06:17:56.625Z,99957.94
2023-01-26T06:20:28.456Z,99958.97
2023-01-26T06:23:02.792Z,99958.34
2023-01-26T06:25:43.501Z,99951.53
2023-01-26T06:28:14.105Z,99940.66
2023-01-26T06:30:47.178Z,99947.66
2023-01-26T06:33:19.318Z,99953.28
2023-01-26T06:35:49.806Z,99955.16
2023-01-26T06:38:20.361Z,99948.97
2023-01-26T06:41:03.072Z,99959.19
2023-01-26T06:43:35.301Z,99956.16
2023-01-26T06:46:15.565Z,99957.16
2023-01-26T06:48:48.029Z,99953.91
2023-01-26T06:51:44.398Z,99958.69
2023-01-26T06:54:22.077Z,99950.28
2023-01-26T06:57:12.484Z,99956.53
2023-01-26T07:00:06.183Z,99958.63
2023-01-26T07:02:38.958Z,99961.38
2023-01-26T07:05:19.319Z,99966.50
2023-01-26T07:07:51.170Z,99959.09
2023-01-26T07:10:23.660Z,99952.69
2023-01-26T07:13:03.158Z,99953.28
2023-01-26T07:15:34.395Z,99959.97
2023-01-26T07:18:05.374Z,99959.56
2023-01-26T07:20:33.997Z,99960.97
2023-01-26T07:23:06.232Z,99958.38
2023-01-26T07:25:35.813Z,99949.66
2023-01-26T07:28:21.597Z,99948.06
2023-01-26T07:30:52.574Z,99958.50
2023-01-26T07:33:23.112Z,99949.59
2023-01-26T07:35:54.583Z,99944.81
2023-01-26T07:38:35.336Z,99937.81
2023-01-26T07:41:10.196Z,99948.31
2023-01-26T07:43:45.994Z,99937.69
2023-01-26T07:46:17.743Z,99939.22
2023-01-26T07:48:47.004Z,99939.25
2023-01-26T07:51:16.217Z,99942.09
2023-01-26T07:53:50.110Z,99937.47
2023-01-26T07:56:20.970Z,99947.41
2023-01-26T07:59:07.987Z,99932.75
2023-01-26T08:01:37.137Z,99941.22
2023-01-26T08:04:08.412Z,99931.78
2023-01-26T08:06:38.816Z,99940.88
2023-01-26T08:09:08.504Z,99943.84
2023-01-26T08:11:42.665Z,99935.88
2023-01-26T08:14:35.395Z,99938.91
2023-01-26T08:17:23.739Z,99953.44
2023-01-26T08:19:53.687Z,99944.44
2023-01-26T08:22:28.524Z,99929.75
2023-01-26T08:25:00.508Z,99934.09
2023-01-26T08:27:28.911Z,99936.28
2023-01-26T08:30:11.592Z,99940.59
2023-01-26T08:32:43.347Z,99942.47
2023-01-26T08:35:20.006Z,99943.34
2023-01-26T08:37:50.055Z,99931.34
2023-01-26T08:40:21.809Z,99945.78
2023-01-26T08:42:51.393Z,99931.88
2023-01-26T08:45:22.460Z,99933.00
2023-01-26T08:47:54.295Z,99929.41
2023-01-26T08:50:26.520Z,99932.50
2023-01-26T08:53:05.388Z,99927.56
2023-01-26T08:55:45.442Z,99918.56
2023-01-26T08:58:13.838Z,99925.84
2023-01-26T09:00:59.568Z,99925.81
2023-01-26T09:03:28.866Z,99918.66
2023-01-26T09:06:03.165Z,99930.13
2023-01-26T09:08:34.053Z,99924.09
2023-01-26T09:11:17.377Z,99922.72
2023-01-26T09:13:48.667Z,99915.44
2023-01-26T09:16:21.600Z,99932.84
2023-01-26T09:18:58.286Z,99929.34
2023-01-26T09:21:29.042Z,99923.66
2023-01-26T09:24:01.297Z,99926.47
2023-01-26T09:26:34.115Z,99930.38
2023-01-26T09:29:05.401Z,99924.19
2023-01-26T09:31:36.747Z,99932.34
2023-01-26T09:34:10.214Z,99927.31
2023-01-26T09:36:42.018Z,99924.84
2023-01-26T09:39:11.142Z,99925.81
2023-01-26T09:41:53.406Z,99926.72
2023-01-26T09:44:28.332Z,99920.13
2023-01-26T09:47:12.545Z,99917.47
2023-01-26T09:49:50.640Z,99914.09
2023-01-26T09:52:26.614Z,99906.25
2023-01-26T09:55:00.813Z,99911.91
2023-01-26T09:57:34.803Z,99905.25
2023-01-26T10:00:18.896Z,99914.25
2023-01-26T10:03:00.746Z,99908.13
2023-01-26T10:05:39.767Z,99903.53
2023-01-26T10:08:16.237Z,99908.97
2023-01-26T10:10:50.855Z,99897.09
2023-01-26T10:13:21.507Z,99894.13
2023-01-26T10:15:54.857Z,99897.19
2023-01-26T10:18:31.579Z,99898.81
2023-01-26T10:21:01.873Z,99891.16
2023-01-26T10:23:34.222Z,99896.09
2023-01-26T10:26:17.106Z,99884.44
2023-01-26T10:28:47.463Z,99893.00
2023-01-26T10:31:18.743Z,99889.03
2023-01-26T10:34:00.258Z,99890.22
2023-01-26T10:36:34.290Z,99879.25
2023-01-26T10:39:09.357Z,99874.00
2023-01-26T10:41:48.317Z,99876.94
2023-01-26T10:44:27.686Z,99861.22
2023-01-26T10:47:18.220Z,99869.41
2023-01-26T10:49:50.600Z,99858.94
2023-01-26T10:52:23.145Z,99862.84
2023-01-26T10:55:11.014Z,99861.50
2023-01-26T10:57:45.042Z,99853.38
2023-01-26T11:00:26.470Z,99846.94
2023-01-26T11:03:04.669Z,99852.63
2023-01-26T11:05:51.929Z,99854.50
2023-01-26T11:08:35.674Z,99839.19
2023-01-26T11:11:10.637Z,99838.91
2023-01-26T11:13:44.025Z,99837.78
2023-01-26T11:16:19.753Z,99836.13
2023-01-26T11:18:56.865Z,99842.38
2023-01-26T11:21:32.422Z,99829.00
2023-01-26T11:24:10.558Z,99817.81
2023-01-26T11:27:18.972Z,99821.75
2023-01-26T11:30:17.022Z,99818.66
2023-01-26T11:32:55.638Z,99809.69
2023-01-26T11:35:33.590Z,99808.50
2023-01-26T11:38:26.503Z,99808.31
2023-01-26T11:41:05.891Z,99800.47
2023-01-26T11:44:06.491Z,99797.53
2023-01-26T11:47:05.496Z,99800.91
2023-01-26T11:49:53.034Z,99788.25
2023-01-26T11:52:36.028Z,99785.91
2023-01-26T11:55:26.175Z,99782.19
2023-01-26T11:58:08.315Z,99778.75
2023-01-26T12:00:42.099Z,99768.81
2023-01-26T12:03:21.301Z,99769.53
2023-01-26T12:05:54.170Z,99760.16
2023-01-26T12:08:38.654Z,99762.78
2023-01-26T12:11:30.384Z,99761.84
2023-01-26T12:14:12.577Z,99757.88
2023-01-26T12:17:16.732Z,99766.72
2023-01-26T12:19:55.312Z,99749.09
2023-01-26T12:22:30.034Z,99748.56
2023-01-26T12:25:28.656Z,99745.09
2023-01-26T12:28:17.412Z,99739.06
2023-01-26T12:30:55.453Z,99749.06
2023-01-26T12:33:27.679Z,99738.88
2023-01-26T12:36:29.915Z,99745.66
2023-01-26T12:39:09.062Z,99754.16
2023-01-26T12:42:06.760Z,99744.34
2023-01-26T12:44:46.295Z,99738.78
2023-01-26T12:47:20.067Z,99734.56
2023-01-26T12:49:55.254Z,99738.97
2023-01-26T12:52:32.006Z,99743.41
2023-01-26T12:55:11.360Z,99728.97
2023-01-26T12:57:44.230Z,99738.03
2023-01-26T13:00:37.024Z,99736.25
2023-01-26T13:03:20.182Z,99726.66
2023-01-26T13:05:59.007Z,99725.25
2023-01-26T13:09:00.710Z,99723.78
2023-01-26T13:11:48.498Z,99730.66
2023-01-26T13:14:52.246Z,99725.69
2023-01-26T13:17:59.685Z,99724.47
2023-01-26T13:20:58.222Z,99722.03
2023-01-26T13:23:52.198Z,99732.94
2023-01-26T13:26:43.723Z,99709.69
2023-01-26T13:29:37.741Z,99729.84
2023-01-26T13:32:51.282Z,99727.19
2023-01-26T13:35:30.095Z,99722.94
2023-01-26T13:38:12.526Z,99725.75
2023-01-26T13:40:50.171Z,99736.88
2023-01-26T13:43:29.685Z,99725.69
2023-01-26T13:46:19.699Z,99729.28
2023-01-26T13:49:03.900Z,99744.06
2023-01-26T13:51:38.776Z,99724.38
2023-01-26T13:54:16.438Z,99736.78
2023-01-26T13:57:02.152Z,99729.69
2023-01-26T13:59:33.200Z,99735.75
2023-01-26T14:02:11.841Z,99719.84
2023-01-26T14:04:52.430Z,99732.66
2023-01-26T14:07:31.294Z,99728.31
2023-01-26T14:10:04.617Z,99734.88
2023-01-26T14:12:38.580Z,99733.22
2023-01-26T14:15:24.358Z,99731.63
2023-01-26T14:17:58.230Z,99729.63
2023-01-26T14:20:32.345Z,99732.53
2023-01-26T14:23:19.765Z,99734.53
2023-01-26T14:26:01.409Z,99737.59
2023-01-26T14:28:44.436Z,99720.66
2023-01-26T14:31:28.194Z,99732.13
2023-01-26T14:33:58.885Z,99737.34
2023-01-26T14:36:37.191Z,99736.00
2023-01-26T14:39:20.648Z,99751.59
2023-01-26T14:41:52.966Z,99750.03
2023-01-26T14:44:25.510Z,99745.75
2023-01-26T14:46:58.773Z,99743.94
2023-01-26T14:49:48.289Z,99744.19
2023-01-26T14:52:26.846Z,99735.56
2023-01-26T14:55:01.053Z,99739.50
2023-01-26T14:57:33.252Z,99735.66
2023-01-26T15:00:10.973Z,99725.19
2023-01-26T15:02:44.919Z,99737.78
2023-01-26T15:05:25.047Z,99728.09
2023-01-26T15:07:58.996Z,99732.84
2023-01-26T15:10:35.096Z,99730.94
2023-01-26T15:13:26.803Z,99737.50
2023-01-26T15:16:12.929Z,99730.34
2023-01-26T15:18:46.950Z,99721.47
2023-01-26T15:21:20.253Z,99743.56
2023-01-26T15:24:01.780Z,99740.50
2023-01-26T15:26:33.574Z,99734.34
2023-01-26T15:29:22.075Z,99753.31
2023-01-26T15:31:56.975Z,99746.84
2023-01-26T15:34:32.686Z,99742.97
2023-01-26T15:37:10.050Z,99752.25
2023-01-26T15:39:40.943Z,99756.28
2023-01-26T15:42:14.604Z,99754.69
2023-01-26T15:44:58.177Z,99751.97
2023-01-26T15:47:28.954Z,99757.00
2023-01-26T15:50:00.306Z,99764.41
2023-01-26T15:52:36.184Z,99766.56
2023-01-26T15:55:18.560Z,99763.88
2023-01-26T15:57:51.128Z,99760.41
2023-01-26T16:00:28.969Z,99765.06
2023-01-26T16:03:00.279Z,99763.78
2023-01-26T16:05:34.907Z,99758.34
2023-01-26T16:08:08.258Z,99753.81
2023-01-26T16:10:39.290Z,99763.22
2023-01-26T16:13:14.339Z,99758.72
2023-01-26T16:15:46.330Z,99755.94
2023-01-26T16:18:18.460Z,99753.88
2023-01-26T16:20:59.155Z,99760.41
2023-01-26T16:23:29.984Z,99765.66
2023-01-26T16:26:01.991Z,99758.03
2023-01-26T16:28:30.663Z,99757.84
2023-01-26T16:31:19.471Z,99763.50
2023-01-26T16:33:49.100Z,99759.97
2023-01-26T16:36:27.282Z,99753.63
2023-01-26T16:38:58.963Z,99760.69
2023-01-26T16:41:33.075Z,99768.50
2023-01-26T16:44:05.712Z,99754.16
2023-01-26T16:46:54.693Z,99756.38
2023-01-26T16:49:23.530Z,99753.19
2023-01-26T16:52:01.521Z,99752.84
2023-01-26T16:54:38.696Z,99765.25
2023-01-26T16:57:15.469Z,99762.66
2023-01-26T16:59:44.707Z,99765.28
2023-01-26T17:02:41.063Z,99759.94
2023-01-26T17:05:18.293Z,99753.72
2023-01-26T17:07:50.808Z,99757.22
2023-01-26T17:10:31.091Z,99754.72
2023-01-26T17:13:10.950Z,99757.00
2023-01-26T17:15:40.976Z,99754.53
2023-01-26T17:18:18.493Z,99755.69
2023-01-26T17:20:51.157Z,99763.59
2023-01-26T17:23:24.931Z,99755.88
2023-01-26T17:26:03.726Z,99767.16
2023-01-26T17:28:39.903Z,99768.41
2023-01-26T17:31:16.532Z,99768.00
2023-01-26T17:33:50.720Z,99767.09
2023-01-26T17:36:24.001Z,99758.81
2023-01-26T17:39:00.540Z,99759.84
2023-01-26T17:41:35.892Z,99765.03
2023-01-26T17:44:12.568Z,99757.81
2023-01-26T17:46:47.394Z,99748.75
2023-01-26T17:49:32.180Z,99756.53
2023-01-26T17:52:05.082Z,99760.50
2023-01-26T17:54:38.492Z,99762.13
2023-01-26T17:57:10.180Z,99756.28
2023-01-26T17:59:49.676Z,99761.88
2023-01-26T18:02:24.823Z,99755.59
2023-01-26T18:07:54.839Z,99752.22
2023-01-26T18:10:32.988Z,99761.06
2023-01-26T18:13:01.576Z,99760.28
2023-01-26T18:15:33.875Z,99755.59
2023-01-26T18:18:08.058Z,99752.16
2023-01-26T18:20:44.669Z,99758.13
2023-01-26T18:23:27.239Z,99752.50
2023-01-26T18:26:06.542Z,99756.78
2023-01-26T18:28:54.825Z,99751.69
2023-01-26T18:31:35.095Z,99748.38
2023-01-26T18:34:06.975Z,99748.81
2023-01-26T18:36:39.092Z,99759.16
2023-01-26T18:39:18.162Z,99757.78
2023-01-26T18:42:00.371Z,99753.19
2023-01-26T18:44:32.116Z,99763.25
2023-01-26T18:47:33.792Z,99760.88
2023-01-26T18:50:25.043Z,99762.22
2023-01-26T18:53:07.708Z,99759.84
2023-01-26T18:55:40.433Z,99760.09
2023-01-26T18:58:11.719Z,99760.72
2023-01-26T19:00:53.614Z,99751.94
2023-01-26T19:03:26.876Z,99754.75
2023-01-26T19:05:58.979Z,99757.03
2023-01-26T19:08:33.021Z,99769.19
2023-01-26T19:14:01.356Z,99759.69
2023-01-26T19:16:42.224Z,99759.84
2023-01-26T19:19:20.996Z,99768.88
2023-01-26T19:22:02.428Z,99765.38
2023-01-26T19:24:40.113Z,99764.34
2023-01-26T19:27:18.181Z,99755.19
2023-01-26T19:29:47.907Z,99757.16
2023-01-26T19:32:21.577Z,99760.19
2023-01-26T19:34:59.040Z,99760.56
2023-01-26T19:37:44.230Z,99747.63
2023-01-26T19:40:29.119Z,99756.91
2023-01-26T19:43:03.728Z,99752.91
2023-01-26T19:45:43.804Z,99744.41
2023-01-26T19:48:34.334Z,99742.88
2023-01-26T19:51:12.960Z,99749.31
2023-01-26T19:53:55.526Z,99753.59
2023-01-26T19:56:54.890Z,99749.25
2023-01-26T19:59:31.030Z,99754.09
2023-01-26T20:02:15.025Z,99754.25
2023-01-26T20:04:47.866Z,99756.13
2023-01-26T20:07:22.427Z,99758.06
2023-01-26T20:10:03.254Z,99758.41
2023-01-26T20:12:39.054Z,99762.66
2023-01-26T20:15:18.304Z,99770.16
2023-01-26T20:17:53.042Z,99758.50
2023-01-26T20:20:25.214Z,99763.03
2023-01-26T20:23:05.991Z,99767.75
2023-01-26T20:25:38.402Z,99767.19
2023-01-26T20:28:19.804Z,99763.94
2023-01-26T20:30:51.874Z,99760.19
2023-01-26T20:33:33.277Z,99759.44
2023-01-26T20:36:35.382Z,99766.31
2023-01-26T20:39:07.320Z,99765.72
2023-01-26T20:41:38.892Z,99764.03
2023-01-26T20:44:14.943Z,99771.25
2023-01-26T20:46:54.439Z,99770.72
2023-01-26T20:49:35.210Z,99772.75
2023-01-26T20:52:14.770Z,99765.47
2023-01-26T20:54:47.480Z,99768.47
2023-01-26T20:57:26.139Z,99761.16
2023-01-26T21:00:07.418Z,99764.63
2023-01-26T21:02:42.479Z,99741.31
2023-01-26T21:05:15.690Z,99745.78
2023-01-26T21:07:51.822Z,99737.78
2023-01-26T21:10:24.150Z,99738.97
2023-01-26T21:12:54.152Z,99746.47
2023-01-26T21:15:30.141Z,99749.25
2023-01-26T21:18:07.294Z,99741.19
2023-01-26T21:20:47.811Z,99745.78
2023-01-26T21:23:25.857Z,99746.19
2023-01-26T21:26:02.717Z,99740.19
2023-01-26T21:28:42.581Z,99749.59
2023-01-26T21:31:20.182Z,99751.28
2023-01-26T21:33:50.466Z,99752.06
2023-01-26T21:36:24.521Z,99753.31
2023-01-26T21:38:58.714Z,99753.09
2023-01-26T21:41:49.241Z,99741.69
2023-01-26T21:44:20.516Z,99749.94
2023-01-26T21:46:53.778Z,99757.50
2023-01-26T21:49:32.104Z,99752.06
2023-01-26T21:52:21.073Z,99756.31
2023-01-26T21:55:05.368Z,99754.78
2023-01-26T21:57:57.405Z,99755.41
2023-01-26T22:00:27.575Z,99739.34
2023-01-26T22:03:01.261Z,99749.09
2023-01-26T22:05:30.699Z,99749.41
2023-01-26T22:08:00.117Z,99745.16
2023-01-26T22:10:28.682Z,99749.41
2023-01-26T22:13:01.344Z,99755.97
2023-01-26T22:15:31.094Z,99742.88
2023-01-26T22:18:05.028Z,99747.81
2023-01-26T22:20:36.091Z,99749.25
2023-01-26T22:23:05.233Z,99748.50
2023-01-26T22:25:38.480Z,99748.56
2023-01-26T22:28:09.352Z,99746.38
2023-01-26T22:30:41.568Z,99744.94
2023-01-26T22:33:14.493Z,99739.22
2023-01-26T22:35:43.717Z,99726.84
2023-01-26T22:38:12.893Z,99737.19
2023-01-26T22:40:41.041Z,99730.25
2023-01-26T22:43:12.478Z,99732.88
2023-01-26T22:45:46.935Z,99717.44
2023-01-26T22:48:21.060Z,99712.50
2023-01-26T22:50:51.294Z,99709.28
2023-01-26T22:53:22.551Z,99708.31
2023-01-26T22:55:53.012Z,99713.03
2023-01-26T22:58:24.799Z,99701.13
2023-01-26T23:00:58.178Z,99696.81
2023-01-26T23:03:29.957Z,99681.00
2023-01-26T23:06:05.657Z,99704.41
2023-01-26T23:08:34.799Z,99706.22
2023-01-26T23:11:10.898Z,99702.13
2023-01-26T23:13:42.136Z,99683.03
2023-01-26T23:16:23.331Z,99683.75
2023-01-26T23:19:02.999Z,99687.69
2023-01-26T23:21:35.584Z,99681.00
2023-01-26T23:24:04.225Z,99664.53
2023-01-26T23:26:34.139Z,99688.13
2023-01-26T23:29:12.797Z,99666.69
2023-01-26T23:31:42.589Z,99674.06
2023-01-26T23:34:15.071Z,99670.75
2023-01-26T23:36:46.750Z,99669.19
2023-01-26T23:39:24.984Z,99677.66
2023-01-26T23:41:54.484Z,99668.91
2023-01-26T23:44:26.950Z,99664.22
2023-01-26T23:46:58.439Z,99657.00
2023-01-26T23:49:31.561Z,99670.06
2023-01-26T23:52:01.343Z,99661.38
2023-01-26T23:54:33.461Z,99662.13
2023-01-26T23:57:08.167Z,99670.44
2023-01-26T23:59:42.511Z,99673.81
